Airport ID:KCXP
Update Time (UTC):17/02/2020 14:12
Wind Speed (Knots):2
Wind Direction (Magnetic):130
Temperature (°C):-1
Dew Point (°C):-4
Humidity (%):79
Altimeter (inHg):30.18
Density Altitude (Feet):
Visibility (Miles):10+
Clouds (Hundreds of feet):CLR
Present Weather:
METAR:METAR KCXP 171410Z AUTO 00000KT 10SM CLR M01/M05 A3018 RMK AO2

The data displayed is for advisory purposes only and is not to be used for flight planning or operations.

This page is not automatically refreshed. Reload the page to see current data.